sensor_id;sensor_type;location;lat;lon;timestamp;pressure;altitude;pressure_sealevel;temperature;humidity
74336;BME280;62755;-33.398;-70.572;2023-04-24T00:01:18;93230.84;;;22.73;45.34
74336;BME280;62755;-33.398;-70.572;2023-04-24T00:04:08;93238.63;;;22.80;44.97
74336;BME280;62755;-33.398;-70.572;2023-04-24T00:07:05;93235.78;;;22.68;45.28
74336;BME280;62755;-33.398;-70.572;2023-04-24T00:09:55;93240.84;;;22.76;45.63
74336;BME280;62755;-33.398;-70.572;2023-04-24T00:12:44;93228.59;;;22.71;45.09
74336;BME280;62755;-33.398;-70.572;2023-04-24T00:15:34;93249.31;;;22.78;45.16
74336;BME280;62755;-33.398;-70.572;2023-04-24T00:18:24;93247.63;;;22.86;44.97
74336;BME280;62755;-33.398;-70.572;2023-04-24T00:21:13;93252.03;;;22.52;45.53
74336;BME280;62755;-33.398;-70.572;2023-04-24T00:24:06;93256.66;;;22.40;45.61
74336;BME280;62755;-33.398;-70.572;2023-04-24T00:26:57;93262.22;;;22.51;45.40
74336;BME280;62755;-33.398;-70.572;2023-04-24T00:29:47;93256.25;;;22.53;45.35
74336;BME280;62755;-33.398;-70.572;2023-04-24T00:32:37;93273.56;;;22.44;45.87
74336;BME280;62755;-33.398;-70.572;2023-04-24T00:35:27;93280.44;;;22.34;45.91
74336;BME280;62755;-33.398;-70.572;2023-04-24T00:38:16;93268.09;;;21.99;46.78
74336;BME280;62755;-33.398;-70.572;2023-04-24T00:41:07;93275.25;;;21.96;46.98
74336;BME280;62755;-33.398;-70.572;2023-04-24T00:43:57;93272.41;;;22.05;46.85
74336;BME280;62755;-33.398;-70.572;2023-04-24T00:46:47;93272.47;;;22.11;46.37
74336;BME280;62755;-33.398;-70.572;2023-04-24T00:49:41;93273.91;;;22.06;46.55
74336;BME280;62755;-33.398;-70.572;2023-04-24T00:52:30;93280.72;;;21.96;46.73
74336;BME280;62755;-33.398;-70.572;2023-04-24T00:55:20;93280.34;;;22.03;46.52
74336;BME280;62755;-33.398;-70.572;2023-04-24T00:58:11;93279.69;;;22.14;46.07
74336;BME280;62755;-33.398;-70.572;2023-04-24T01:01:01;93273.34;;;22.02;46.08
74336;BME280;62755;-33.398;-70.572;2023-04-24T01:03:54;93299.03;;;21.90;46.46
74336;BME280;62755;-33.398;-70.572;2023-04-24T01:06:45;93288.88;;;21.76;46.78
74336;BME280;62755;-33.398;-70.572;2023-04-24T01:09:35;93296.56;;;21.92;46.69
74336;BME280;62755;-33.398;-70.572;2023-04-24T01:12:25;93291.72;;;21.81;46.70
74336;BME280;62755;-33.398;-70.572;2023-04-24T01:15:16;93292.19;;;22.00;46.39
74336;BME280;62755;-33.398;-70.572;2023-04-24T01:18:06;93288.59;;;22.09;46.41
74336;BME280;62755;-33.398;-70.572;2023-04-24T01:20:58;93289.34;;;22.09;46.64
74336;BME280;62755;-33.398;-70.572;2023-04-24T01:23:49;93286.19;;;21.96;47.11
74336;BME280;62755;-33.398;-70.572;2023-04-24T01:26:39;93284.53;;;21.84;47.08
74336;BME280;62755;-33.398;-70.572;2023-04-24T01:29:29;93288.66;;;21.94;47.24
74336;BME280;62755;-33.398;-70.572;2023-04-24T01:32:19;93289.63;;;21.91;47.19
74336;BME280;62755;-33.398;-70.572;2023-04-24T01:35:09;93290.63;;;22.14;46.99
74336;BME280;62755;-33.398;-70.572;2023-04-24T01:37:58;93295.53;;;22.10;46.63
74336;BME280;62755;-33.398;-70.572;2023-04-24T01:40:50;93303.94;;;22.26;46.43
74336;BME280;62755;-33.398;-70.572;2023-04-24T01:43:40;93305.97;;;22.31;46.14
74336;BME280;62755;-33.398;-70.572;2023-04-24T01:46:29;93307.47;;;22.32;46.05
74336;BME280;62755;-33.398;-70.572;2023-04-24T01:49:19;93298.97;;;22.50;45.51
74336;BME280;62755;-33.398;-70.572;2023-04-24T01:52:09;93301.31;;;22.37;45.82
74336;BME280;62755;-33.398;-70.572;2023-04-24T01:55:00;93302.19;;;22.03;46.33
74336;BME280;62755;-33.398;-70.572;2023-04-24T01:57:53;93294.75;;;21.69;47.15
74336;BME280;62755;-33.398;-70.572;2023-04-24T02:00:44;93308.31;;;21.98;46.70
74336;BME280;62755;-33.398;-70.572;2023-04-24T02:03:34;93303.78;;;21.75;47.20
74336;BME280;62755;-33.398;-70.572;2023-04-24T02:06:23;93306.94;;;21.88;46.68
74336;BME280;62755;-33.398;-70.572;2023-04-24T02:09:13;93302.66;;;21.81;46.99
74336;BME280;62755;-33.398;-70.572;2023-04-24T02:12:02;93310.97;;;21.93;46.76
74336;BME280;62755;-33.398;-70.572;2023-04-24T02:14:54;93300.53;;;21.91;46.79
74336;BME280;62755;-33.398;-70.572;2023-04-24T02:17:43;93306.47;;;22.10;46.23
74336;BME280;62755;-33.398;-70.572;2023-04-24T02:20:33;93307.56;;;22.18;45.83
74336;BME280;62755;-33.398;-70.572;2023-04-24T02:23:23;93300.66;;;22.02;46.25
74336;BME280;62755;-33.398;-70.572;2023-04-24T02:26:12;93297.78;;;22.11;46.12
74336;BME280;62755;-33.398;-70.572;2023-04-24T02:29:02;93299.84;;;21.96;46.35
74336;BME280;62755;-33.398;-70.572;2023-04-24T02:31:53;93292.84;;;21.75;46.29
74336;BME280;62755;-33.398;-70.572;2023-04-24T02:34:43;93289.28;;;21.83;45.74
74336;BME280;62755;-33.398;-70.572;2023-04-24T02:37:32;93302.06;;;21.77;45.92
74336;BME280;62755;-33.398;-70.572;2023-04-24T02:40:22;93291.72;;;21.47;45.76
74336;BME280;62755;-33.398;-70.572;2023-04-24T02:43:12;93292.03;;;21.69;45.73
74336;BME280;62755;-33.398;-70.572;2023-04-24T02:46:02;93288.59;;;21.74;45.18
74336;BME280;62755;-33.398;-70.572;2023-04-24T02:48:53;93287.94;;;21.79;45.21
74336;BME280;62755;-33.398;-70.572;2023-04-24T02:51:43;93286.63;;;21.20;46.25
74336;BME280;62755;-33.398;-70.572;2023-04-24T02:54:32;93276.06;;;21.27;46.02
74336;BME280;62755;-33.398;-70.572;2023-04-24T02:57:21;93286.41;;;21.38;46.04
74336;BME280;62755;-33.398;-70.572;2023-04-24T03:00:12;93279.88;;;21.50;45.89
74336;BME280;62755;-33.398;-70.572;2023-04-24T03:03:01;93275.13;;;21.30;46.08
74336;BME280;62755;-33.398;-70.572;2023-04-24T03:05:53;93276.41;;;21.35;46.09
74336;BME280;62755;-33.398;-70.572;2023-04-24T03:08:43;93277.38;;;21.32;46.30
74336;BME280;62755;-33.398;-70.572;2023-04-24T03:11:33;93268.13;;;21.44;45.87
74336;BME280;62755;-33.398;-70.572;2023-04-24T03:14:23;93267.53;;;21.20;46.00
74336;BME280;62755;-33.398;-70.572;2023-04-24T03:17:12;93265.34;;;21.24;45.64
74336;BME280;62755;-33.398;-70.572;2023-04-24T03:20:02;93270.28;;;21.05;45.64
74336;BME280;62755;-33.398;-70.572;2023-04-24T03:22:53;93265.16;;;21.27;45.12
74336;BME280;62755;-33.398;-70.572;2023-04-24T03:25:44;93247.69;;;21.19;44.71
74336;BME280;62755;-33.398;-70.572;2023-04-24T03:28:35;93256.50;;;21.29;44.70
74336;BME280;62755;-33.398;-70.572;2023-04-24T03:31:24;93252.13;;;21.37;44.71
74336;BME280;62755;-33.398;-70.572;2023-04-24T03:34:14;93252.78;;;21.12;45.58
74336;BME280;62755;-33.398;-70.572;2023-04-24T03:37:03;93217.88;;;20.52;46.25
74336;BME280;62755;-33.398;-70.572;2023-04-24T03:39:55;93253.25;;;20.95;45.69
74336;BME280;62755;-33.398;-70.572;2023-04-24T03:42:44;93246.66;;;20.87;45.13
74336;BME280;62755;-33.398;-70.572;2023-04-24T03:45:33;93251.94;;;20.91;45.00
74336;BME280;62755;-33.398;-70.572;2023-04-24T03:48:23;93239.81;;;20.92;44.84
74336;BME280;62755;-33.398;-70.572;2023-04-24T03:51:12;93237.28;;;20.88;45.21
74336;BME280;62755;-33.398;-70.572;2023-04-24T03:54:02;93245.03;;;20.75;45.37
74336;BME280;62755;-33.398;-70.572;2023-04-24T03:56:53;93250.34;;;20.70;45.28
74336;BME280;62755;-33.398;-70.572;2023-04-24T03:59:43;93242.22;;;20.55;46.22
74336;BME280;62755;-33.398;-70.572;2023-04-24T04:02:32;93238.34;;;20.62;45.61
74336;BME280;62755;-33.398;-70.572;2023-04-24T04:05:22;93241.81;;;20.62;45.05
74336;BME280;62755;-33.398;-70.572;2023-04-24T04:08:11;93226.31;;;20.68;43.75
74336;BME280;62755;-33.398;-70.572;2023-04-24T04:11:01;93242.38;;;20.66;43.34
74336;BME280;62755;-33.398;-70.572;2023-04-24T04:13:53;93233.44;;;20.66;43.28
74336;BME280;62755;-33.398;-70.572;2023-04-24T04:16:42;93239.19;;;20.53;44.10
74336;BME280;62755;-33.398;-70.572;2023-04-24T04:19:32;93235.22;;;20.83;43.96
74336;BME280;62755;-33.398;-70.572;2023-04-24T04:22:21;93239.28;;;20.73;44.51
74336;BME280;62755;-33.398;-70.572;2023-04-24T04:25:11;93233.84;;;20.30;45.24
74336;BME280;62755;-33.398;-70.572;2023-04-24T04:28:00;93236.63;;;20.21;45.89
74336;BME280;62755;-33.398;-70.572;2023-04-24T04:30:52;93234.19;;;20.23;47.34
74336;BME280;62755;-33.398;-70.572;2023-04-24T04:33:42;93226.47;;;20.06;47.18
74336;BME280;62755;-33.398;-70.572;2023-04-24T04:36:32;93241.19;;;20.00;46.99
74336;BME280;62755;-33.398;-70.572;2023-04-24T04:39:23;93231.16;;;20.06;46.61
74336;BME280;62755;-33.398;-70.572;2023-04-24T04:42:13;93235.09;;;20.05;46.36
74336;BME280;62755;-33.398;-70.572;2023-04-24T04:45:03;93225.38;;;19.75;46.19
74336;BME280;62755;-33.398;-70.572;2023-04-24T04:47:55;93223.06;;;19.97;46.23
74336;BME280;62755;-33.398;-70.572;2023-04-24T04:50:44;93223.28;;;20.08;47.17
74336;BME280;62755;-33.398;-70.572;2023-04-24T04:53:34;93224.19;;;19.90;46.32
74336;BME280;62755;-33.398;-70.572;2023-04-24T04:56:24;93225.56;;;19.86;46.63
74336;BME280;62755;-33.398;-70.572;2023-04-24T04:59:13;93227.38;;;19.89;47.53
74336;BME280;62755;-33.398;-70.572;2023-04-24T05:02:03;93232.63;;;19.92;47.57
74336;BME280;62755;-33.398;-70.572;2023-04-24T05:04:54;93224.19;;;19.90;47.54
74336;BME280;62755;-33.398;-70.572;2023-04-24T05:07:44;93228.78;;;19.99;47.04
74336;BME280;62755;-33.398;-70.572;2023-04-24T05:10:34;93228.63;;;20.17;47.60
74336;BME280;62755;-33.398;-70.572;2023-04-24T05:13:23;93214.34;;;19.93;48.59
74336;BME280;62755;-33.398;-70.572;2023-04-24T05:16:13;93207.63;;;19.79;46.74
74336;BME280;62755;-33.398;-70.572;2023-04-24T05:19:03;93229.81;;;19.87;46.37
74336;BME280;62755;-33.398;-70.572;2023-04-24T05:21:54;93237.13;;;19.95;46.95
74336;BME280;62755;-33.398;-70.572;2023-04-24T05:24:44;93232.84;;;20.03;46.32
74336;BME280;62755;-33.398;-70.572;2023-04-24T05:27:33;93230.69;;;19.93;46.47
74336;BME280;62755;-33.398;-70.572;2023-04-24T05:30:23;93229.53;;;19.85;46.13
74336;BME280;62755;-33.398;-70.572;2023-04-24T05:33:13;93224.00;;;19.94;46.03
74336;BME280;62755;-33.398;-70.572;2023-04-24T05:36:02;93217.44;;;20.00;46.05
74336;BME280;62755;-33.398;-70.572;2023-04-24T05:38:54;93229.44;;;19.94;47.33
74336;BME280;62755;-33.398;-70.572;2023-04-24T05:41:43;93227.59;;;20.00;46.19
74336;BME280;62755;-33.398;-70.572;2023-04-24T05:44:33;93216.03;;;20.05;46.55
74336;BME280;62755;-33.398;-70.572;2023-04-24T05:47:22;93220.31;;;20.35;45.77
74336;BME280;62755;-33.398;-70.572;2023-04-24T05:50:13;93228.38;;;20.44;45.56
74336;BME280;62755;-33.398;-70.572;2023-04-24T05:53:02;93226.31;;;20.39;45.31
74336;BME280;62755;-33.398;-70.572;2023-04-24T05:55:55;93223.69;;;20.45;44.59
74336;BME280;62755;-33.398;-70.572;2023-04-24T05:58:45;93227.78;;;20.11;44.55
74336;BME280;62755;-33.398;-70.572;2023-04-24T06:01:34;93215.16;;;19.84;45.17
74336;BME280;62755;-33.398;-70.572;2023-04-24T06:04:24;93223.53;;;19.81;44.85
74336;BME280;62755;-33.398;-70.572;2023-04-24T06:07:14;93216.09;;;19.81;45.06
74336;BME280;62755;-33.398;-70.572;2023-04-24T06:10:03;93218.94;;;19.87;45.07
74336;BME280;62755;-33.398;-70.572;2023-04-24T06:12:55;93211.63;;;19.93;44.98
74336;BME280;62755;-33.398;-70.572;2023-04-24T06:15:47;93191.06;;;19.54;44.05
74336;BME280;62755;-33.398;-70.572;2023-04-24T06:18:36;93209.84;;;19.52;43.71
74336;BME280;62755;-33.398;-70.572;2023-04-24T06:21:25;93198.19;;;19.51;43.04
74336;BME280;62755;-33.398;-70.572;2023-04-24T06:24:15;93197.63;;;19.47;43.23
74336;BME280;62755;-33.398;-70.572;2023-04-24T06:27:11;93198.66;;;19.50;43.59
74336;BME280;62755;-33.398;-70.572;2023-04-24T06:30:02;93185.06;;;19.50;43.95
74336;BME280;62755;-33.398;-70.572;2023-04-24T06:32:52;93189.09;;;19.30;43.58
74336;BME280;62755;-33.398;-70.572;2023-04-24T06:35:41;93193.78;;;19.54;43.57
74336;BME280;62755;-33.398;-70.572;2023-04-24T06:38:31;93186.19;;;19.58;43.63
74336;BME280;62755;-33.398;-70.572;2023-04-24T06:41:20;93192.63;;;19.84;43.25
74336;BME280;62755;-33.398;-70.572;2023-04-24T06:44:10;93190.28;;;19.77;44.07
74336;BME280;62755;-33.398;-70.572;2023-04-24T06:47:06;93180.25;;;19.83;43.56
74336;BME280;62755;-33.398;-70.572;2023-04-24T06:49:55;93177.13;;;19.75;44.07
74336;BME280;62755;-33.398;-70.572;2023-04-24T06:52:45;93182.47;;;19.70;44.12
74336;BME280;62755;-33.398;-70.572;2023-04-24T06:55:36;93181.84;;;19.75;44.21
74336;BME280;62755;-33.398;-70.572;2023-04-24T06:58:26;93176.50;;;19.80;44.06
74336;BME280;62755;-33.398;-70.572;2023-04-24T07:01:15;93170.47;;;19.76;44.80
74336;BME280;62755;-33.398;-70.572;2023-04-24T07:04:06;93169.44;;;19.74;44.53
74336;BME280;62755;-33.398;-70.572;2023-04-24T07:06:56;93170.66;;;19.73;43.81
74336;BME280;62755;-33.398;-70.572;2023-04-24T07:09:45;93171.72;;;19.90;43.49
74336;BME280;62755;-33.398;-70.572;2023-04-24T07:12:35;93170.56;;;19.67;42.67
74336;BME280;62755;-33.398;-70.572;2023-04-24T07:15:25;93171.00;;;19.66;41.88
74336;BME280;62755;-33.398;-70.572;2023-04-24T07:18:14;93163.25;;;19.73;41.91
74336;BME280;62755;-33.398;-70.572;2023-04-24T07:21:05;93165.75;;;19.62;41.39
74336;BME280;62755;-33.398;-70.572;2023-04-24T07:23:55;93164.09;;;19.65;41.02
74336;BME280;62755;-33.398;-70.572;2023-04-24T07:26:44;93165.41;;;19.69;40.88
74336;BME280;62755;-33.398;-70.572;2023-04-24T07:29:34;93164.66;;;19.69;41.26
74336;BME280;62755;-33.398;-70.572;2023-04-24T07:32:24;93167.91;;;19.58;40.01
74336;BME280;62755;-33.398;-70.572;2023-04-24T07:35:14;93162.19;;;19.56;40.68
74336;BME280;62755;-33.398;-70.572;2023-04-24T07:38:05;93172.78;;;19.30;40.59
74336;BME280;62755;-33.398;-70.572;2023-04-24T07:40:54;93170.66;;;19.35;40.88
74336;BME280;62755;-33.398;-70.572;2023-04-24T07:43:45;93166.53;;;19.15;40.25
74336;BME280;62755;-33.398;-70.572;2023-04-24T07:46:34;93159.28;;;19.12;40.75
74336;BME280;62755;-33.398;-70.572;2023-04-24T07:49:24;93156.41;;;19.16;40.93
74336;BME280;62755;-33.398;-70.572;2023-04-24T07:52:14;93164.31;;;19.28;41.39
74336;BME280;62755;-33.398;-70.572;2023-04-24T07:55:06;93162.50;;;19.35;41.35
74336;BME280;62755;-33.398;-70.572;2023-04-24T07:57:56;93156.34;;;19.01;41.94
74336;BME280;62755;-33.398;-70.572;2023-04-24T08:00:45;93160.34;;;19.15;42.04
74336;BME280;62755;-33.398;-70.572;2023-04-24T08:03:35;93165.88;;;18.97;42.20
74336;BME280;62755;-33.398;-70.572;2023-04-24T08:06:24;93162.44;;;18.96;43.31
74336;BME280;62755;-33.398;-70.572;2023-04-24T08:09:17;93130.53;;;18.73;43.12
74336;BME280;62755;-33.398;-70.572;2023-04-24T08:12:08;93149.25;;;18.80;43.50
74336;BME280;62755;-33.398;-70.572;2023-04-24T08:14:58;93157.75;;;18.64;44.51
74336;BME280;62755;-33.398;-70.572;2023-04-24T08:17:47;93134.56;;;18.54;44.72
74336;BME280;62755;-33.398;-70.572;2023-04-24T08:20:36;93153.75;;;18.83;44.48
74336;BME280;62755;-33.398;-70.572;2023-04-24T08:23:26;93130.22;;;18.80;44.02
74336;BME280;62755;-33.398;-70.572;2023-04-24T08:26:17;93154.72;;;19.18;43.57
74336;BME280;62755;-33.398;-70.572;2023-04-24T08:29:08;93147.88;;;19.08;43.78
74336;BME280;62755;-33.398;-70.572;2023-04-24T08:31:58;93152.88;;;19.24;43.53
74336;BME280;62755;-33.398;-70.572;2023-04-24T08:34:47;93153.44;;;19.28;43.29
74336;BME280;62755;-33.398;-70.572;2023-04-24T08:37:39;93155.56;;;19.34;42.99
74336;BME280;62755;-33.398;-70.572;2023-04-24T08:40:29;93166.13;;;19.32;43.00
74336;BME280;62755;-33.398;-70.572;2023-04-24T08:43:22;93169.28;;;19.39;42.71
74336;BME280;62755;-33.398;-70.572;2023-04-24T08:46:16;93166.84;;;19.41;42.25
74336;BME280;62755;-33.398;-70.572;2023-04-24T08:49:05;93167.41;;;19.45;41.80
74336;BME280;62755;-33.398;-70.572;2023-04-24T08:51:55;93170.53;;;19.29;40.97
74336;BME280;62755;-33.398;-70.572;2023-04-24T08:54:47;93170.13;;;19.21;40.28
74336;BME280;62755;-33.398;-70.572;2023-04-24T08:57:37;93169.84;;;19.19;40.41
74336;BME280;62755;-33.398;-70.572;2023-04-24T09:00:27;93173.13;;;19.23;40.15
74336;BME280;62755;-33.398;-70.572;2023-04-24T09:03:19;93182.09;;;19.15;40.15
74336;BME280;62755;-33.398;-70.572;2023-04-24T09:06:11;93178.38;;;19.27;40.17
74336;BME280;62755;-33.398;-70.572;2023-04-24T09:09:01;93173.66;;;19.13;40.07
74336;BME280;62755;-33.398;-70.572;2023-04-24T09:11:52;93182.00;;;19.33;40.02
74336;BME280;62755;-33.398;-70.572;2023-04-24T09:14:42;93189.06;;;19.40;39.86
74336;BME280;62755;-33.398;-70.572;2023-04-24T09:17:33;93190.28;;;19.39;39.81
74336;BME280;62755;-33.398;-70.572;2023-04-24T09:20:24;93196.03;;;19.32;39.88
74336;BME280;62755;-33.398;-70.572;2023-04-24T09:23:18;93198.56;;;19.11;40.28
74336;BME280;62755;-33.398;-70.572;2023-04-24T09:26:09;93200.19;;;18.94;40.52
74336;BME280;62755;-33.398;-70.572;2023-04-24T09:29:01;93209.88;;;18.86;41.02
74336;BME280;62755;-33.398;-70.572;2023-04-24T09:31:50;93216.09;;;18.87;41.43
74336;BME280;62755;-33.398;-70.572;2023-04-24T09:34:40;93219.50;;;18.96;41.18
74336;BME280;62755;-33.398;-70.572;2023-04-24T09:37:35;93225.09;;;18.93;41.36
74336;BME280;62755;-33.398;-70.572;2023-04-24T09:40:26;93223.19;;;18.84;42.05
74336;BME280;62755;-33.398;-70.572;2023-04-24T09:43:15;93232.22;;;18.90;42.66
74336;BME280;62755;-33.398;-70.572;2023-04-24T09:46:08;93237.78;;;18.96;43.62
74336;BME280;62755;-33.398;-70.572;2023-04-24T09:48:58;93240.97;;;18.85;43.10
74336;BME280;62755;-33.398;-70.572;2023-04-24T09:52:03;93240.72;;;18.74;43.48
74336;BME280;62755;-33.398;-70.572;2023-04-24T09:54:54;93245.53;;;18.79;44.08
74336;BME280;62755;-33.398;-70.572;2023-04-24T09:57:51;93250.72;;;18.68;44.51
74336;BME280;62755;-33.398;-70.572;2023-04-24T10:00:41;93250.13;;;18.64;46.00
74336;BME280;62755;-33.398;-70.572;2023-04-24T10:03:31;93261.44;;;18.63;45.42
74336;BME280;62755;-33.398;-70.572;2023-04-24T10:06:21;93257.94;;;18.71;45.15
74336;BME280;62755;-33.398;-70.572;2023-04-24T10:09:10;93264.50;;;18.47;45.68
74336;BME280;62755;-33.398;-70.572;2023-04-24T10:12:02;93270.53;;;18.41;46.23
74336;BME280;62755;-33.398;-70.572;2023-04-24T10:14:53;93268.88;;;18.35;46.06
74336;BME280;62755;-33.398;-70.572;2023-04-24T10:17:43;93266.50;;;18.10;47.06
74336;BME280;62755;-33.398;-70.572;2023-04-24T10:20:39;93266.78;;;18.21;46.83
74336;BME280;62755;-33.398;-70.572;2023-04-24T10:23:30;93282.44;;;18.26;46.84
74336;BME280;62755;-33.398;-70.572;2023-04-24T10:26:20;93272.50;;;18.23;46.55
74336;BME280;62755;-33.398;-70.572;2023-04-24T10:29:12;93277.31;;;18.28;47.30
74336;BME280;62755;-33.398;-70.572;2023-04-24T10:32:02;93285.16;;;18.35;46.10
74336;BME280;62755;-33.398;-70.572;2023-04-24T10:34:51;93286.97;;;18.38;46.30
74336;BME280;62755;-33.398;-70.572;2023-04-24T10:37:45;93292.13;;;18.18;47.56
74336;BME280;62755;-33.398;-70.572;2023-04-24T10:40:36;93289.97;;;18.40;46.78
74336;BME280;62755;-33.398;-70.572;2023-04-24T10:43:25;93296.63;;;18.39;46.75
74336;BME280;62755;-33.398;-70.572;2023-04-24T10:46:20;93307.22;;;17.92;48.83
74336;BME280;62755;-33.398;-70.572;2023-04-24T10:49:10;93309.00;;;17.68;49.15
74336;BME280;62755;-33.398;-70.572;2023-04-24T10:52:02;93287.78;;;17.17;50.42
74336;BME280;62755;-33.398;-70.572;2023-04-24T10:54:52;93312.47;;;17.19;51.83
74336;BME280;62755;-33.398;-70.572;2023-04-24T10:58:02;93319.38;;;17.51;50.12
74336;BME280;62755;-33.398;-70.572;2023-04-24T11:01:00;93315.91;;;17.50;50.38
74336;BME280;62755;-33.398;-70.572;2023-04-24T11:03:55;93321.38;;;17.78;49.23
74336;BME280;62755;-33.398;-70.572;2023-04-24T11:06:45;93327.09;;;17.80;48.90
74336;BME280;62755;-33.398;-70.572;2023-04-24T11:09:34;93330.84;;;17.73;48.90
74336;BME280;62755;-33.398;-70.572;2023-04-24T11:12:27;93328.13;;;17.73;48.72
74336;BME280;62755;-33.398;-70.572;2023-04-24T11:15:17;93332.94;;;17.51;49.58
74336;BME280;62755;-33.398;-70.572;2023-04-24T11:18:06;93336.28;;;17.24;50.02
74336;BME280;62755;-33.398;-70.572;2023-04-24T11:21:02;93331.41;;;17.10;50.12
74336;BME280;62755;-33.398;-70.572;2023-04-24T11:23:59;93320.44;;;16.31;50.56
74336;BME280;62755;-33.398;-70.572;2023-04-24T11:27:14;93329.38;;;16.19;50.65
74336;BME280;62755;-33.398;-70.572;2023-04-24T11:30:06;93341.50;;;16.36;50.92
74336;BME280;62755;-33.398;-70.572;2023-04-24T11:33:02;93343.22;;;16.64;49.96
74336;BME280;62755;-33.398;-70.572;2023-04-24T11:35:52;93353.66;;;16.53;49.72
74336;BME280;62755;-33.398;-70.572;2023-04-24T11:38:43;93345.31;;;16.60;49.53
74336;BME280;62755;-33.398;-70.572;2023-04-24T11:41:34;93351.50;;;16.91;48.45
74336;BME280;62755;-33.398;-70.572;2023-04-24T11:44:25;93363.81;;;17.14;47.54
74336;BME280;62755;-33.398;-70.572;2023-04-24T11:47:15;93358.34;;;17.44;48.21
74336;BME280;62755;-33.398;-70.572;2023-04-24T11:50:07;93357.41;;;17.38;47.95
74336;BME280;62755;-33.398;-70.572;2023-04-24T11:52:56;93366.41;;;17.26;47.51
74336;BME280;62755;-33.398;-70.572;2023-04-24T11:55:49;93372.75;;;17.32;46.76
74336;BME280;62755;-33.398;-70.572;2023-04-24T11:58:39;93368.53;;;17.31;46.62
74336;BME280;62755;-33.398;-70.572;2023-04-24T12:01:28;93383.13;;;17.34;47.06
74336;BME280;62755;-33.398;-70.572;2023-04-24T12:04:18;93357.06;;;17.27;47.29
74336;BME280;62755;-33.398;-70.572;2023-04-24T12:07:08;93386.22;;;17.14;48.41
74336;BME280;62755;-33.398;-70.572;2023-04-24T12:09:58;93390.75;;;17.17;48.27
74336;BME280;62755;-33.398;-70.572;2023-04-24T12:12:50;93389.84;;;17.20;48.10
74336;BME280;62755;-33.398;-70.572;2023-04-24T12:15:40;93392.81;;;17.44;47.81
74336;BME280;62755;-33.398;-70.572;2023-04-24T12:18:40;93390.84;;;17.35;48.00
74336;BME280;62755;-33.398;-70.572;2023-04-24T12:21:39;93394.22;;;17.48;48.17
74336;BME280;62755;-33.398;-70.572;2023-04-24T12:24:29;93377.31;;;17.44;47.64
74336;BME280;62755;-33.398;-70.572;2023-04-24T12:27:20;93391.81;;;17.50;48.15
74336;BME280;62755;-33.398;-70.572;2023-04-24T12:30:13;93395.72;;;17.49;48.65
74336;BME280;62755;-33.398;-70.572;2023-04-24T12:33:04;93398.81;;;17.70;49.56
74336;BME280;62755;-33.398;-70.572;2023-04-24T12:35:54;93370.31;;;17.65;49.38
74336;BME280;62755;-33.398;-70.572;2023-04-24T12:38:45;93401.06;;;17.71;49.64
74336;BME280;62755;-33.398;-70.572;2023-04-24T12:41:35;93397.00;;;17.76;49.96
74336;BME280;62755;-33.398;-70.572;2023-04-24T12:44:33;93393.06;;;17.59;50.98
74336;BME280;62755;-33.398;-70.572;2023-04-24T12:47:26;93410.97;;;17.56;51.92
74336;BME280;62755;-33.398;-70.572;2023-04-24T12:50:16;93409.53;;;17.42;52.66
74336;BME280;62755;-33.398;-70.572;2023-04-24T12:53:08;93419.09;;;17.25;53.37
74336;BME280;62755;-33.398;-70.572;2023-04-24T12:55:58;93415.31;;;17.23;53.43
74336;BME280;62755;-33.398;-70.572;2023-04-24T12:58:47;93422.44;;;17.29;53.78
74336;BME280;62755;-33.398;-70.572;2023-04-24T13:01:38;93420.06;;;17.40;54.04
74336;BME280;62755;-33.398;-70.572;2023-04-24T13:04:30;93418.81;;;17.32;54.53
74336;BME280;62755;-33.398;-70.572;2023-04-24T13:07:20;93415.28;;;17.44;54.48
74336;BME280;62755;-33.398;-70.572;2023-04-24T13:10:10;93412.97;;;17.65;54.48
74336;BME280;62755;-33.398;-70.572;2023-04-24T13:13:00;93419.78;;;17.87;53.80
74336;BME280;62755;-33.398;-70.572;2023-04-24T13:15:49;93423.41;;;17.84;53.87
74336;BME280;62755;-33.398;-70.572;2023-04-24T13:18:39;93418.41;;;17.83;54.03
74336;BME280;62755;-33.398;-70.572;2023-04-24T13:21:30;93418.75;;;17.94;54.00
74336;BME280;62755;-33.398;-70.572;2023-04-24T13:24:20;93420.59;;;18.06;54.17
74336;BME280;62755;-33.398;-70.572;2023-04-24T13:27:11;93418.19;;;18.17;53.31
74336;BME280;62755;-33.398;-70.572;2023-04-24T13:30:01;93404.16;;;18.09;53.51
74336;BME280;62755;-33.398;-70.572;2023-04-24T13:32:50;93404.63;;;18.17;53.67
74336;BME280;62755;-33.398;-70.572;2023-04-24T13:35:40;93416.75;;;18.43;53.33
74336;BME280;62755;-33.398;-70.572;2023-04-24T13:38:31;93420.22;;;18.53;52.73
74336;BME280;62755;-33.398;-70.572;2023-04-24T13:41:21;93419.72;;;18.81;52.17
74336;BME280;62755;-33.398;-70.572;2023-04-24T13:44:11;93397.44;;;18.59;51.65
74336;BME280;62755;-33.398;-70.572;2023-04-24T13:47:00;93410.19;;;19.04;51.17
74336;BME280;62755;-33.398;-70.572;2023-04-24T13:49:50;93407.84;;;19.39;50.12
74336;BME280;62755;-33.398;-70.572;2023-04-24T13:52:40;93394.06;;;19.51;49.37
74336;BME280;62755;-33.398;-70.572;2023-04-24T13:55:32;93404.19;;;20.07;48.55
74336;BME280;62755;-33.398;-70.572;2023-04-24T13:58:22;93399.59;;;20.60;47.15
74336;BME280;62755;-33.398;-70.572;2023-04-24T14:01:11;93403.16;;;21.19;45.46
74336;BME280;62755;-33.398;-70.572;2023-04-24T14:04:01;93382.34;;;21.07;45.38
74336;BME280;62755;-33.398;-70.572;2023-04-24T14:06:50;93397.59;;;21.92;44.14
74336;BME280;62755;-33.398;-70.572;2023-04-24T14:09:40;93402.50;;;22.63;42.32
74336;BME280;62755;-33.398;-70.572;2023-04-24T14:12:31;93391.50;;;22.78;41.55
74336;BME280;62755;-33.398;-70.572;2023-04-24T14:15:21;93395.84;;;23.41;40.43
74336;BME280;62755;-33.398;-70.572;2023-04-24T14:18:11;93387.38;;;23.70;39.67
74336;BME280;62755;-33.398;-70.572;2023-04-24T14:21:00;93377.59;;;24.42;38.37
74336;BME280;62755;-33.398;-70.572;2023-04-24T14:23:50;93380.53;;;24.98;37.63
74336;BME280;62755;-33.398;-70.572;2023-04-24T14:26:40;93383.03;;;25.18;37.15
74336;BME280;62755;-33.398;-70.572;2023-04-24T14:29:31;93376.56;;;25.10;37.82